Time;durP1;ratioP1;P1;durP2;ratioP2;P2;SDS_P1;SDS_P2;PMS_P1;PMS_P2;Temp;Humidity;BMP_temperature;BMP_pressure;BME280_temperature;BME280_humidity;BME280_pressure;Samples;Min_cycle;Max_cycle;Signal;HPM_P1;HPM_P2
2022/03/02 00:02:12;;;;;;;29.70;12.70;;;;;;;0.58;79.67;101049.02;123489;1099;104428;-83
2022/03/02 00:04:44;;;;;;;29.30;12.10;;;;;;;0.56;79.06;101045.38;123380;1099;104284;-83
2022/03/02 00:07:16;;;;;;;31.43;12.30;;;;;;;0.56;79.89;101047.96;123614;1099;104235;-83
2022/03/02 00:09:47;;;;;;;29.13;12.67;;;;;;;0.59;81.54;101042.16;123620;1098;104386;-85
2022/03/02 00:12:19;;;;;;;30.80;12.60;;;;;;;0.60;79.40;101038.81;123467;1099;104303;-84
2022/03/02 00:14:53;;;;;;;30.47;12.90;;;;;;;0.59;79.43;101032.73;123397;1099;104331;-84
2022/03/02 00:17:25;;;;;;;32.57;13.27;;;;;;;0.60;80.23;101026.80;123903;1099;104222;-83
2022/03/02 00:20:00;;;;;;;34.83;13.17;;;;;;;0.61;79.98;101023.45;124081;1099;104239;-82
2022/03/02 00:22:31;;;;;;;31.57;12.17;;;;;;;0.60;79.27;101019.05;124087;1099;104348;-83
2022/03/02 00:25:07;;;;;;;29.20;12.70;;;;;;;0.59;80.66;101014.64;123716;1099;104302;-83
2022/03/02 00:27:40;;;;;;;29.25;12.70;;;;;;;0.58;80.55;101025.77;124070;1099;104868;-82
2022/03/02 00:30:14;;;;;;;30.00;12.70;;;;;;;0.55;80.96;101012.61;124079;1098;104341;-81
2022/03/02 00:32:50;;;;;;;32.17;12.93;;;;;;;0.52;79.47;101007.19;123386;1099;104284;-84
2022/03/02 00:35:25;;;;;;;27.80;11.47;;;;;;;0.50;80.28;101003.58;123506;1099;104277;-81
2022/03/02 00:38:02;;;;;;;29.90;12.40;;;;;;;0.51;80.51;100997.61;123581;1099;104341;-81
2022/03/02 00:40:35;;;;;;;29.30;12.17;;;;;;;0.50;80.60;100995.83;123544;1099;104216;-83
2022/03/02 00:43:12;;;;;;;30.07;11.77;;;;;;;0.50;80.41;100988.09;123468;1099;104334;-82
2022/03/02 00:45:47;;;;;;;29.93;12.00;;;;;;;0.50;79.72;100983.81;123426;1098;104268;-83
2022/03/02 00:48:20;;;;;;;28.87;11.90;;;;;;;0.51;79.59;100982.13;123454;1099;104267;-82
2022/03/02 00:50:53;;;;;;;28.73;11.10;;;;;;;0.52;80.89;100971.03;123514;1099;104242;-82
2022/03/02 00:53:26;;;;;;;30.33;11.87;;;;;;;0.52;81.29;100971.03;123488;1099;104277;-81
2022/03/02 00:55:58;;;;;;;28.80;11.93;;;;;;;0.51;80.43;100972.72;123525;1099;104341;-83
2022/03/02 00:58:30;;;;;;;28.20;12.00;;;;;;;0.51;81.54;100964.05;123425;1099;104316;-82
2022/03/02 01:01:02;;;;;;;30.90;12.07;;;;;;;0.51;80.81;100964.05;123759;1099;104261;-81
2022/03/02 01:03:33;;;;;;;30.13;12.20;;;;;;;0.52;80.42;100964.17;123734;1098;104261;-82
2022/03/02 01:06:05;;;;;;;30.33;11.97;;;;;;;0.52;80.65;100955.53;123551;1099;104463;-81
2022/03/02 01:08:37;;;;;;;30.47;11.93;;;;;;;0.53;80.17;100959.90;123563;1099;104338;-81
2022/03/02 01:11:08;;;;;;;32.10;13.47;;;;;;;0.53;80.96;100953.08;123654;1099;104239;-80
2022/03/02 01:13:40;;;;;;;28.60;11.67;;;;;;;0.54;80.96;100949.70;123620;1099;104367;-82
2022/03/02 01:16:12;;;;;;;32.80;12.13;;;;;;;0.53;80.75;100945.33;123693;1099;104216;-82
2022/03/02 01:18:45;;;;;;;28.63;11.87;;;;;;;0.53;80.55;100941.83;123834;1098;104303;-80
2022/03/02 01:21:17;;;;;;;27.85;11.50;;;;;;;0.54;81.89;100944.53;123846;1099;104286;-81
2022/03/02 01:23:49;;;;;;;28.93;10.63;;;;;;;0.56;82.24;100939.50;124038;1099;104261;-82
2022/03/02 01:26:20;;;;;;;31.00;12.80;;;;;;;0.55;81.06;100937.71;123710;1099;104479;-80
2022/03/02 01:28:53;;;;;;;32.60;13.40;;;;;;;0.57;80.43;100943.89;123775;1099;104245;-81
2022/03/02 01:31:26;;;;;;;32.20;12.20;;;;;;;0.56;79.88;100939.50;123678;1099;104239;-81
2022/03/02 01:33:59;;;;;;;29.17;11.60;;;;;;;0.58;81.45;100944.78;123746;1099;104293;-81
2022/03/02 01:36:30;;;;;;;28.50;12.57;;;;;;;0.56;81.15;100936.91;123753;1099;104261;-81
2022/03/02 01:39:01;;;;;;;31.10;12.97;;;;;;;0.57;80.53;100936.15;123896;1099;104405;-81
2022/03/02 01:41:34;;;;;;;30.87;12.63;;;;;;;0.57;81.90;100928.41;123733;1099;104239;-82
2022/03/02 01:44:06;;;;;;;30.17;12.10;;;;;;;0.58;80.59;100924.13;123511;1099;104692;-83
2022/03/02 01:46:37;;;;;;;31.93;11.97;;;;;;;0.59;82.12;100921.67;123528;1099;104373;-81
2022/03/02 01:49:10;;;;;;;31.00;12.83;;;;;;;0.61;81.71;100926.96;123643;1099;104341;-80
2022/03/02 01:51:46;;;;;;;31.07;13.10;;;;;;;0.61;81.36;100925.30;123494;1099;104306;-82
2022/03/02 01:54:17;;;;;;;31.50;12.60;;;;;;;0.62;81.72;100921.92;123762;1099;104277;-81
2022/03/02 01:56:49;;;;;;;30.25;12.85;;;;;;;0.62;81.33;100921.03;123619;1099;104358;-82
2022/03/02 01:59:21;;;;;;;31.67;13.23;;;;;;;0.62;81.24;100916.76;123840;1099;104271;-81
2022/03/02 02:01:52;;;;;;;30.70;13.40;;;;;;;0.62;81.11;100915.86;123749;1099;104210;-81
2022/03/02 02:04:24;;;;;;;31.80;12.73;;;;;;;0.63;81.30;100913.41;123735;1099;104262;-82
2022/03/02 02:06:57;;;;;;;30.87;12.30;;;;;;;0.62;81.53;100909.02;123559;1099;104265;-81
2022/03/02 02:09:33;;;;;;;32.43;13.40;;;;;;;0.64;80.52;100899.73;123531;1099;104331;-83
2022/03/02 02:12:04;;;;;;;32.23;12.70;;;;;;;0.65;81.08;100898.03;123558;1099;104402;-82
2022/03/02 02:14:36;;;;;;;32.70;14.07;;;;;;;0.64;80.71;100899.73;123578;1099;104236;-82
2022/03/02 02:17:08;;;;;;;30.57;12.17;;;;;;;0.67;81.26;100893.89;123503;1099;104338;-81
2022/03/02 02:19:39;;;;;;;29.00;11.47;;;;;;;0.67;81.95;100888.72;123612;1099;104315;-81
2022/03/02 02:22:11;;;;;;;33.55;12.80;;;;;;;0.69;81.94;100884.61;123498;1099;104402;-83
2022/03/02 02:24:42;;;;;;;28.03;11.63;;;;;;;0.70;81.58;100886.39;123546;1099;104380;-81
2022/03/02 02:27:15;;;;;;;30.07;12.37;;;;;;;0.69;82.38;100885.50;123551;1098;104270;-82
2022/03/02 02:29:49;;;;;;;29.95;12.05;;;;;;;0.70;82.28;100879.56;123542;1099;104316;-83
2022/03/02 02:32:20;;;;;;;29.97;12.20;;;;;;;0.70;82.05;100876.98;123539;1099;104322;-81
2022/03/02 02:34:51;;;;;;;32.30;13.30;;;;;;;0.72;81.87;100879.69;123577;1099;104383;-81
2022/03/02 02:37:23;;;;;;;31.45;12.40;;;;;;;0.71;82.57;100875.29;123550;1099;104685;-82
2022/03/02 02:40:00;;;;;;;33.13;13.13;;;;;;;0.73;83.55;100880.58;123516;1099;104380;-81
2022/03/02 02:42:32;;;;;;;30.57;12.70;;;;;;;0.73;82.46;100872.83;123480;1099;104248;-81
2022/03/02 02:45:03;;;;;;;30.73;12.50;;;;;;;0.74;82.25;100864.31;123484;1098;104309;-84
2022/03/02 02:47:35;;;;;;;30.73;12.50;;;;;;;0.74;82.40;100861.73;123465;1099;104332;-82
2022/03/02 02:50:20;;;;;;;33.95;13.70;;;;;;;0.74;80.97;100861.73;123388;1098;104336;-82
2022/03/02 02:52:52;;;;;;;30.60;12.57;;;;;;;0.73;82.26;100849.58;123295;1099;104351;-83
2022/03/02 02:55:26;;;;;;;28.70;11.93;;;;;;;0.73;81.53;100853.06;123499;1098;104648;-83
2022/03/02 02:57:59;;;;;;;29.10;11.37;;;;;;;0.71;82.02;100847.77;123435;1099;104616;-81
2022/03/02 03:00:32;;;;;;;27.63;11.53;;;;;;;0.73;82.48;100852.16;123530;1099;104379;-83
2022/03/02 03:03:05;;;;;;;28.77;11.35;;;;;;;0.73;82.03;100847.89;123452;1098;104262;-81
2022/03/02 03:05:37;;;;;;;26.00;10.00;;;;;;;0.71;82.77;100852.94;123640;1099;104303;-82
2022/03/02 03:08:11;;;;;;;24.30;10.73;;;;;;;0.71;82.77;100845.19;123512;1099;104312;-84
2022/03/02 03:10:45;;;;;;;26.37;10.13;;;;;;;0.70;83.80;100847.64;123551;1099;104650;-82
2022/03/02 03:13:17;;;;;;;23.73;10.33;;;;;;;0.69;81.65;100845.86;123450;1099;104274;-84
2022/03/02 03:15:52;;;;;;;24.10;10.30;;;;;;;0.68;82.20;100841.46;123412;1099;104351;-82
2022/03/02 03:18:26;;;;;;;23.67;9.70;;;;;;;0.66;83.00;100843.03;123480;1099;104347;-82
2022/03/02 03:20:57;;;;;;;22.93;10.17;;;;;;;0.66;82.32;100840.45;123462;1099;104264;-82
2022/03/02 03:23:29;;;;;;;23.43;10.00;;;;;;;0.66;82.53;100840.45;123465;1098;104648;-81
2022/03/02 03:26:00;;;;;;;22.45;8.60;;;;;;;0.65;83.67;100839.52;123525;1099;104313;-80
2022/03/02 03:28:32;;;;;;;21.95;9.35;;;;;;;0.65;83.30;100836.05;123514;1099;104265;-82
2022/03/02 03:31:03;;;;;;;24.60;9.50;;;;;;;0.63;82.81;100841.09;123493;1099;104261;-83
2022/03/02 03:33:35;;;;;;;23.27;9.33;;;;;;;0.64;83.16;100837.74;123421;1099;104338;-84
2022/03/02 03:36:09;;;;;;;23.43;9.23;;;;;;;0.63;82.51;100832.45;123474;1099;104249;-84
2022/03/02 03:38:41;;;;;;;24.00;9.17;;;;;;;0.62;82.88;100834.11;123489;1098;104312;-81
2022/03/02 03:41:13;;;;;;;24.43;10.50;;;;;;;0.61;82.77;100827.16;123413;1099;104316;-83
2022/03/02 03:43:44;;;;;;;23.77;10.47;;;;;;;0.60;83.95;100832.20;123482;1099;104242;-81
2022/03/02 03:46:16;;;;;;;24.77;10.47;;;;;;;0.59;83.62;100820.95;123519;1099;104363;-81
2022/03/02 03:48:47;;;;;;;25.13;11.37;;;;;;;0.59;82.90;100820.06;123740;1099;104360;-83
2022/03/02 03:51:19;;;;;;;24.03;10.20;;;;;;;0.57;82.93;100819.94;123467;1099;104304;-81
2022/03/02 03:53:50;;;;;;;24.10;10.00;;;;;;;0.57;83.39;100813.88;123445;1098;104239;-81
2022/03/02 03:56:22;;;;;;;23.03;9.30;;;;;;;0.56;82.19;100812.95;123462;1099;104772;-84
2022/03/02 03:58:55;;;;;;;22.67;9.37;;;;;;;0.56;83.24;100812.06;123415;1098;104265;-82
2022/03/02 04:01:27;;;;;;;25.30;10.13;;;;;;;0.54;83.30;100805.08;123476;1098;105624;-81
2022/03/02 04:04:00;;;;;;;23.50;8.93;;;;;;;0.53;83.64;100805.88;123509;1099;104354;-81
2022/03/02 04:06:35;;;;;;;24.60;10.90;;;;;;;0.51;83.46;100803.95;123433;1099;104934;-82
2022/03/02 04:09:07;;;;;;;23.37;10.00;;;;;;;0.49;82.89;100796.08;123545;1099;104232;-79
2022/03/02 04:11:38;;;;;;;24.47;9.63;;;;;;;0.48;83.66;100799.45;123527;1099;104216;-83
2022/03/02 04:14:10;;;;;;;23.70;10.23;;;;;;;0.46;83.47;100792.36;123622;1098;104239;-82
2022/03/02 04:16:42;;;;;;;22.47;9.53;;;;;;;0.46;82.38;100795.83;123441;1099;104360;-82
2022/03/02 04:19:13;;;;;;;23.17;9.83;;;;;;;0.45;83.30;100800.87;123465;1099;104338;-81
2022/03/02 04:21:45;;;;;;;21.90;9.37;;;;;;;0.45;82.99;100794.05;123353;1099;105890;-83
2022/03/02 04:24:17;;;;;;;22.97;9.47;;;;;;;0.47;83.92;100791.59;123875;1099;104351;-82
2022/03/02 04:26:48;;;;;;;20.57;9.00;;;;;;;0.46;83.30;100798.41;123860;1099;104341;-81
2022/03/02 04:29:20;;;;;;;23.93;10.00;;;;;;;0.44;83.40;100789.65;123780;1099;104297;-82
2022/03/02 04:31:51;;;;;;;25.47;11.67;;;;;;;0.46;83.49;100780.34;123736;1099;104677;-82
2022/03/02 04:34:22;;;;;;;27.57;11.90;;;;;;;0.46;82.91;100779.45;123622;1099;104312;-82
2022/03/02 04:36:55;;;;;;;39.20;17.60;;;;;;;0.44;83.79;100776.73;123606;1099;104259;-80
2022/03/02 04:39:27;;;;;;;44.77;21.17;;;;;;;0.45;83.33;100775.05;123609;1099;104264;-80
2022/03/02 04:41:59;;;;;;;45.30;22.27;;;;;;;0.44;83.07;100776.73;123667;1099;104335;-79
2022/03/02 04:44:31;;;;;;;48.83;23.93;;;;;;;0.45;83.73;100782.80;123636;1098;107915;-81
2022/03/02 04:47:04;;;;;;;37.85;17.20;;;;;;;0.45;83.68;100778.55;123714;1099;104271;-80
2022/03/02 04:49:36;;;;;;;34.93;16.07;;;;;;;0.47;82.95;100776.09;123754;1099;104242;-81
2022/03/02 04:52:09;;;;;;;36.27;15.77;;;;;;;0.48;83.31;100778.80;123907;1099;104223;-81
2022/03/02 04:57:29;;;;;;;26.93;12.67;;;;;;;0.49;83.28;100779.69;123958;1099;104354;-80
2022/03/02 05:00:00;;;;;;;22.70;11.33;;;;;;;0.49;82.88;100775.42;123749;1099;104220;-81
2022/03/02 05:02:32;;;;;;;26.87;12.20;;;;;;;0.51;83.18;100773.89;123971;1099;104245;-81
2022/03/02 05:05:03;;;;;;;22.67;10.30;;;;;;;0.52;83.79;100790.27;124035;1099;104730;-81
2022/03/02 05:07:35;;;;;;;28.00;11.87;;;;;;;0.52;83.15;100783.41;123935;1099;104418;-81
2022/03/02 05:10:09;;;;;;;27.80;13.33;;;;;;;0.52;83.38;100785.99;123839;1099;104262;-81
2022/03/02 05:12:40;;;;;;;;;;;;;;;0.54;83.56;100780.95;123954;1099;104264;-79
2022/03/02 05:15:14;;;;;;;27.20;11.55;;;;;;;0.54;83.36;100784.42;123919;1099;109589;-81
2022/03/02 05:17:50;;;;;;;26.80;11.67;;;;;;;0.54;83.31;100779.26;123552;1099;104236;-81
2022/03/02 05:20:24;;;;;;;24.50;10.63;;;;;;;0.55;83.30;100787.93;123561;1099;104333;-81
2022/03/02 05:22:56;;;;;;;25.53;11.27;;;;;;;0.54;84.42;100780.95;123715;1099;104281;-81
2022/03/02 05:25:28;;;;;;;23.90;10.50;;;;;;;0.55;82.96;100775.02;123879;1099;104245;-81
2022/03/02 05:27:59;;;;;;;24.23;11.07;;;;;;;0.55;83.56;100775.02;123820;1099;104281;-80
2022/03/02 05:30:31;;;;;;;24.30;9.87;;;;;;;0.55;83.22;100775.02;123713;1099;104336;-80
2022/03/02 05:33:02;;;;;;;25.50;10.40;;;;;;;0.57;82.85;100778.61;123719;1099;104294;-81
2022/03/02 05:35:34;;;;;;;24.70;11.20;;;;;;;0.58;83.45;100770.10;123755;1099;107487;-80
2022/03/02 05:38:06;;;;;;;26.37;11.73;;;;;;;0.58;83.31;100777.84;124210;1099;104245;-80
2022/03/02 05:40:37;;;;;;;26.23;11.63;;;;;;;0.59;83.44;100783.91;124185;1098;104376;-81
2022/03/02 05:43:08;;;;;;;23.53;10.77;;;;;;;0.60;83.93;100778.86;124220;1099;104309;-82
2022/03/02 05:45:40;;;;;;;25.17;11.57;;;;;;;0.62;83.61;100777.30;124814;1098;104367;-82
2022/03/02 05:48:11;;;;;;;23.10;10.70;;;;;;;0.63;83.38;100783.38;124446;1099;104223;-82
2022/03/02 05:51:01;;;;;;;23.97;10.60;;;;;;;0.64;83.77;100783.50;124752;1099;104253;-81
2022/03/02 05:53:34;;;;;;;23.03;10.70;;;;;;;0.63;83.41;100781.69;124134;1099;104242;-82
2022/03/02 05:56:06;;;;;;;22.87;10.30;;;;;;;0.64;83.17;100782.58;124448;1099;104205;-81
2022/03/02 05:58:38;;;;;;;24.53;11.07;;;;;;;0.66;83.05;100783.63;124118;1099;104273;-82
2022/03/02 06:01:09;;;;;;;25.67;11.10;;;;;;;0.67;83.81;100777.66;123813;1099;104284;-81
2022/03/02 06:03:41;;;;;;;25.85;10.40;;;;;;;0.68;83.85;100782.95;123807;1099;104785;-82
2022/03/02 06:06:13;;;;;;;25.30;11.03;;;;;;;0.66;83.76;100776.77;124183;1099;109296;-82
2022/03/02 06:08:45;;;;;;;25.33;12.33;;;;;;;0.67;83.52;100781.17;123911;1099;104236;-81
2022/03/02 06:11:21;;;;;;;27.57;12.30;;;;;;;0.67;83.20;100775.08;123744;1099;104680;-83
2022/03/02 06:13:55;;;;;;;26.53;12.93;;;;;;;0.67;83.18;100772.49;123800;1098;104280;-82
2022/03/02 06:16:27;;;;;;;29.83;14.10;;;;;;;0.66;83.42;100774.19;124021;1099;104737;-81
2022/03/02 06:18:59;;;;;;;24.50;11.13;;;;;;;0.66;83.37;100766.44;124425;1098;104236;-81
2022/03/02 06:21:32;;;;;;;25.60;11.37;;;;;;;0.68;84.46;100769.14;124219;1099;104267;-80
2022/03/02 06:24:05;;;;;;;25.13;10.90;;;;;;;0.69;84.02;100771.84;124221;1099;104380;-83
2022/03/02 06:26:38;;;;;;;29.37;14.17;;;;;;;0.69;83.68;100766.68;124414;1098;104198;-81
2022/03/02 06:29:10;;;;;;;28.30;12.57;;;;;;;0.70;83.43;100764.98;124541;1099;104216;-80
2022/03/02 06:31:41;;;;;;;27.90;12.33;;;;;;;0.74;83.26;100766.16;123916;1099;104268;-82
2022/03/02 06:34:14;;;;;;;28.80;13.40;;;;;;;0.77;83.71;100768.98;124237;1098;104242;-81
2022/03/02 06:36:53;;;;;;;28.50;13.65;;;;;;;0.78;83.55;100773.34;124397;1102;104232;-81
2022/03/02 06:39:29;;;;;;;25.33;11.97;;;;;;;0.80;83.48;100764.06;124073;1102;104392;-80
2022/03/02 06:42:12;;;;;;;27.63;13.57;;;;;;;0.80;82.78;100766.64;123962;1102;104322;-83
2022/03/02 06:44:54;;;;;;;25.40;11.43;;;;;;;0.82;84.06;100765.07;124043;1100;105513;-80
2022/03/02 06:47:32;;;;;;;34.87;14.67;;;;;;;0.86;83.18;100767.12;124377;1101;104287;-81
2022/03/02 06:50:16;;;;;;;42.77;19.50;;;;;;;0.87;83.47;100764.66;123985;1099;104466;-84
2022/03/02 06:53:07;;;;;;;36.75;16.00;;;;;;;0.90;83.06;100766.56;124184;1102;104489;-80
2022/03/02 06:55:55;;;;;;;42.13;18.50;;;;;;;0.93;83.80;100766.80;124282;1102;104354;-80
2022/03/02 06:58:29;;;;;;;35.37;17.30;;;;;;;0.93;83.52;100763.33;124602;1102;104265;-80
2022/03/02 07:01:02;;;;;;;35.10;17.33;;;;;;;0.94;83.33;100768.62;124474;1102;104294;-81
2022/03/02 07:03:51;;;;;;;34.13;16.47;;;;;;;0.95;83.36;100756.59;124343;1102;104431;-81
2022/03/02 07:06:36;;;;;;;37.40;17.33;;;;;;;0.97;83.67;100760.22;124442;1102;104290;-81
2022/03/02 07:09:24;;;;;;;35.50;15.90;;;;;;;0.96;83.42;100756.70;124318;1102;104480;-83
2022/03/02 07:12:12;;;;;;;32.10;15.00;;;;;;;0.96;83.30;100754.12;124218;1102;104428;-81
2022/03/02 07:14:48;;;;;;;31.40;15.00;;;;;;;0.96;83.35;100754.12;124287;1102;104204;-79
2022/03/02 07:17:36;;;;;;;28.90;13.77;;;;;;;0.95;83.68;100742.01;124275;1102;104670;-80
2022/03/02 07:20:13;;;;;;;26.00;11.80;;;;;;;0.94;83.85;100750.53;124236;1102;104500;-81
2022/03/02 07:22:58;;;;;;;25.03;12.63;;;;;;;0.96;83.16;100738.62;124300;1102;104357;-81
2022/03/02 07:25:31;;;;;;;26.83;12.80;;;;;;;0.99;83.15;100738.86;123776;1102;104418;-80
2022/03/02 07:28:22;;;;;;;25.52;12.73;;;;;;;1.00;82.99;100737.20;124193;1102;104293;-80
2022/03/02 07:31:32;;;;;;;26.87;12.87;;;;;;;0.98;82.99;100737.08;124048;1102;104436;-81
2022/03/02 07:34:16;;;;;;;25.77;12.33;;;;;;;1.00;83.26;100730.33;124271;1099;104389;-80
2022/03/02 07:36:51;;;;;;;26.70;11.73;;;;;;;1.00;83.38;100726.86;124944;1098;102309;-82
2022/03/02 07:39:36;;;;;;;26.30;12.40;;;;;;;1.00;83.60;100732.03;124468;1099;104235;-82
2022/03/02 07:42:24;;;;;;;23.07;10.27;;;;;;;0.92;83.23;100718.52;124712;1099;104383;-82
2022/03/02 07:45:12;;;;;;;26.63;11.63;;;;;;;1.00;83.21;100726.86;124174;1099;104345;-82
2022/03/02 07:48:03;;;;;;;25.77;12.33;;;;;;;1.00;83.07;100727.75;124498;1099;104299;-82
2022/03/02 07:50:43;;;;;;;27.73;12.00;;;;;;;1.00;84.02;100727.75;124348;1099;104275;-81
2022/03/02 07:53:29;;;;;;;27.57;12.80;;;;;;;0.99;83.68;100718.19;123963;1099;104319;-81
2022/03/02 07:56:36;;;;;;;;;;;;;;;;;;;;;
2022/03/02 07:59:41;;;;;;;24.72;11.48;;;;;;;1.00;84.19;100717.41;123681;1099;122137;-82
2022/03/02 08:02:23;;;;;;;27.20;11.60;;;;;;;1.00;83.87;100699.33;124493;1099;104211;-80
2022/03/02 08:05:55;;;;;;;25.00;11.97;;;;;;;0.94;84.23;100697.96;124013;1102;104390;-83
2022/03/02 08:09:34;;;;;;;;;;;;;;;;;;;;;
2022/03/02 08:12:33;;;;;;;23.53;10.30;;;;;;;1.04;84.74;100696.20;123741;1102;104543;-80
2022/03/02 08:15:15;;;;;;;24.93;11.70;;;;;;;1.05;84.19;100697.98;124083;1102;103008;-81
2022/03/02 08:18:01;;;;;;;26.20;11.80;;;;;;;1.03;84.71;100696.98;124019;1102;105667;-81
2022/03/02 08:21:04;;;;;;;24.77;11.50;;;;;;;1.04;84.12;100701.37;124244;1102;104462;-82
2022/03/02 08:27:20;;;;;;;;;;;;;;;1.05;84.20;100697.09;124318;1103;104287;-80
2022/03/02 08:30:32;;;;;;;24.57;11.00;;;;;;;1.05;83.99;100681.59;124349;1105;102999;-82
2022/03/02 08:33:51;;;;;;;;;;;;;;;;;;;;;
2022/03/02 08:37:13;;;;;;;28.87;13.20;;;;;;;1.07;83.88;100680.01;123412;1105;104334;-82
2022/03/02 08:39:55;;;;;;;;;;;;;;;1.08;84.50;100694.74;123235;1103;104261;-82
2022/03/02 08:42:50;;;;;;;26.33;12.20;;;;;;;1.08;83.94;100679.23;123483;1105;104245;-83
2022/03/02 08:46:13;;;;;;;28.97;13.43;;;;;;;1.11;83.68;100674.30;123784;1105;104569;-83
2022/03/02 08:49:04;;;;;;;;;;;;;;;1.13;84.49;100674.42;123683;1105;104306;-81
2022/03/02 08:52:02;;;;;;;26.23;12.87;;;;;;;1.14;84.23;100676.20;123499;1103;104407;-83
2022/03/02 08:54:51;;;;;;;26.27;12.43;;;;;;;1.16;84.42;100677.23;123073;1105;104554;-81
2022/03/02 08:57:27;;;;;;;26.87;12.80;;;;;;;1.16;84.02;100674.66;123462;1103;104421;-81
2022/03/02 09:00:36;;;;;;;29.45;14.10;;;;;;;1.16;83.66;100672.07;123072;1102;104490;-80
2022/03/02 09:03:51;;;;;;;29.60;13.97;;;;;;;1.17;84.51;100671.27;122646;1108;104580;-82
2022/03/02 09:07:03;;;;;;;30.57;14.53;;;;;;;1.17;84.32;100672.19;123784;1102;104466;-82
2022/03/02 09:10:20;;;;;;;28.30;13.40;;;;;;;1.17;84.11;100664.43;124291;1099;104264;-81
2022/03/02 09:17:29;;;;;;;;;;;;;;;;;;;;;
2022/03/02 09:20:39;;;;;;;28.13;13.77;;;;;;;1.18;84.38;100647.22;124123;1099;104252;-82
2022/03/02 09:23:16;;;;;;;26.63;13.20;;;;;;;1.22;84.13;100644.09;124049;1099;104227;-82
2022/03/02 09:26:09;;;;;;;28.20;13.40;;;;;;;1.25;84.47;100649.50;123740;1098;104322;-80
2022/03/02 09:32:13;;;;;;;30.67;14.97;;;;;;;1.30;84.88;100627.47;124488;1099;119245;-82
2022/03/02 09:35:15;;;;;;;27.80;13.90;;;;;;;1.35;85.08;100631.28;124803;1099;104270;-84
2022/03/02 09:38:14;;;;;;;27.97;14.00;;;;;;;1.41;84.56;100626.57;124300;1098;104245;-83
2022/03/02 09:41:25;;;;;;;23.50;12.60;;;;;;;1.44;85.12;100616.45;123924;1099;104294;-85
2022/03/02 09:47:20;;;;;;;26.80;13.60;;;;;;;1.51;85.07;100611.73;123853;1098;104428;-81
2022/03/02 09:50:15;;;;;;;29.17;14.40;;;;;;;1.53;85.19;100603.31;123768;1100;104322;-82
2022/03/02 09:56:59;;;;;;;;;;;;;;;1.59;85.64;100593.41;124576;1099;104364;-82
2022/03/02 09:59:56;;;;;;;25.67;13.07;;;;;;;1.60;84.65;100586.55;123691;1099;104373;-82
2022/03/02 10:02:46;;;;;;;26.37;13.30;;;;;;;1.61;85.06;100588.36;123600;1099;104296;-80
2022/03/02 10:05:43;;;;;;;27.50;13.37;;;;;;;1.64;84.82;100578.23;123648;1099;104351;-82
2022/03/02 10:08:30;;;;;;;;;;;;;;;;;;;;;
2022/03/02 10:11:08;;;;;;;30.10;15.40;;;;;;;1.73;84.67;100578.90;124061;1099;104242;-83
2022/03/02 10:14:15;;;;;;;28.40;14.27;;;;;;;1.73;84.95;100577.97;123718;1099;104811;-85
2022/03/02 10:17:00;;;;;;;26.77;13.10;;;;;;;1.71;84.28;100575.28;123925;1099;104357;-83
2022/03/02 10:19:49;;;;;;;28.23;12.57;;;;;;;1.71;85.07;100577.86;123650;1099;104366;-83
2022/03/02 10:22:51;;;;;;;28.33;12.73;;;;;;;1.70;84.69;100568.33;123912;1098;104236;-82
2022/03/02 10:29:00;;;;;;;26.47;12.83;;;;;;;1.61;84.55;100562.48;124212;1099;104416;-83
2022/03/02 10:35:23;;;;;;;25.83;12.50;;;;;;;1.62;84.32;100548.75;126317;1099;102093;-83
2022/03/02 10:38:19;;;;;;;26.87;12.63;;;;;;;1.64;84.94;100554.95;125401;1099;104255;-80
2022/03/02 10:41:16;;;;;;;26.53;13.20;;;;;;;1.66;84.53;100553.36;124968;1099;104258;-83
2022/03/02 10:47:57;;;;;;;;;;;;;;;;;;;;;
2022/03/02 10:51:09;;;;;;;23.93;11.70;;;;;;;1.69;84.74;100539.76;123853;1102;104365;-84
2022/03/02 10:54:00;;;;;;;23.43;11.13;;;;;;;1.71;84.91;100528.71;124609;1101;104238;-83
2022/03/02 10:56:49;;;;;;;26.20;12.25;;;;;;;1.76;84.25;100537.72;124419;1102;104152;-83
2022/03/02 10:59:52;;;;;;;23.30;10.57;;;;;;;1.82;84.97;100533.77;124174;1102;104452;-83
2022/03/02 11:03:10;;;;;;;24.07;11.30;;;;;;;1.92;84.41;100531.05;124738;1101;102658;-84
2022/03/02 11:06:01;;;;;;;24.77;12.63;;;;;;;1.97;84.69;100537.44;124924;1102;102504;-81
2022/03/02 11:08:36;;;;;;;25.20;12.47;;;;;;;1.98;84.62;100534.96;124430;1102;104447;-81
2022/03/02 11:11:13;;;;;;;25.83;13.77;;;;;;;2.03;84.81;100519.75;124451;1102;104344;-81
2022/03/02 11:13:57;;;;;;;27.67;13.40;;;;;;;2.09;84.07;100527.06;124683;1102;104210;-83
2022/03/02 11:16:56;;;;;;;;;;;;;;;;;;;;;
2022/03/02 11:19:34;;;;;;;23.97;12.03;;;;;;;2.09;84.42;100511.53;124187;1105;104520;-82
2022/03/02 11:22:18;;;;;;;24.73;12.20;;;;;;;2.09;84.51;100520.18;124175;1102;104450;-85
2022/03/02 11:25:01;;;;;;;25.07;11.63;;;;;;;2.06;84.92;100514.80;124104;1105;109707;-82
2022/03/02 11:27:45;;;;;;;23.73;11.27;;;;;;;2.04;84.96;100502.52;123676;1106;104481;-82
2022/03/02 11:30:45;;;;;;;25.97;12.43;;;;;;;2.04;84.62;100512.88;123841;1109;104289;-82
2022/03/02 11:33:32;;;;;;;24.30;11.57;;;;;;;2.04;85.20;100502.52;123756;1105;104409;-80
2022/03/02 11:36:17;;;;;;;25.90;13.10;;;;;;;2.05;85.02;100504.33;124042;1102;104686;-82
2022/03/02 11:39:07;;;;;;;23.87;12.37;;;;;;;2.04;84.56;100497.34;124031;1103;104794;-80
2022/03/02 11:42:02;;;;;;;23.60;11.57;;;;;;;2.00;84.86;100501.42;123407;1102;104175;-79
2022/03/02 11:44:38;;;;;;;23.57;11.93;;;;;;;2.01;84.80;100487.70;123379;1102;104645;-79
2022/03/02 11:47:23;;;;;;;24.97;13.20;;;;;;;2.01;84.76;100495.47;123683;1106;104549;-81
2022/03/02 11:50:02;;;;;;;26.97;13.30;;;;;;;2.03;85.00;100485.22;123842;1104;104459;-82
2022/03/02 11:52:58;;;;;;;25.07;11.93;;;;;;;2.04;85.13;100485.33;124103;1102;104175;-82
2022/03/02 11:56:07;;;;;;;24.97;12.03;;;;;;;2.05;84.63;100484.52;124291;1102;104251;-81
2022/03/02 11:59:24;;;;;;;25.40;11.60;;;;;;;2.06;84.85;100478.55;124783;1099;104440;-82
2022/03/02 12:02:26;;;;;;;25.03;12.50;;;;;;;2.06;84.73;100475.97;124198;1098;104437;-81
2022/03/02 12:05:11;;;;;;;24.10;11.70;;;;;;;2.02;85.67;100478.23;123992;1099;104370;-82
2022/03/02 12:07:51;;;;;;;25.47;12.47;;;;;;;2.01;84.54;100469.58;124067;1099;104264;-80
2022/03/02 12:10:34;;;;;;;24.77;12.47;;;;;;;2.01;85.24;100476.42;124423;1099;104262;-79
2022/03/02 12:13:17;;;;;;;22.27;11.50;;;;;;;2.01;85.09;100479.02;124224;1099;104267;-81
2022/03/02 12:15:57;;;;;;;23.30;11.33;;;;;;;1.98;85.46;100478.02;124568;1098;104370;-79
2022/03/02 12:18:39;;;;;;;24.87;11.30;;;;;;;2.01;85.40;100474.76;124235;1098;104351;-82
2022/03/02 12:21:19;;;;;;;22.93;11.50;;;;;;;2.01;85.00;100482.52;124980;1099;104332;-82
2022/03/02 12:24:01;;;;;;;29.53;17.40;;;;;;;2.02;85.07;100475.64;124577;1098;104379;-84
2022/03/02 12:27:08;;;;;;;25.73;12.70;;;;;;;2.03;85.01;100470.58;124112;1099;120747;-85
2022/03/02 12:29:45;;;;;;;22.20;11.30;;;;;;;2.00;84.99;100467.77;124690;1099;104325;-82
2022/03/02 12:32:26;;;;;;;24.40;12.00;;;;;;;2.01;84.29;100466.08;124971;1099;104198;-83
2022/03/02 12:35:08;;;;;;;23.47;11.77;;;;;;;1.99;84.73;100473.73;124410;1099;104261;-84
2022/03/02 12:37:49;;;;;;;24.98;12.85;;;;;;;1.97;84.70;100464.97;125499;1099;104172;-84
2022/03/02 12:40:28;;;;;;;24.00;11.60;;;;;;;1.96;85.05;100468.34;124497;1099;104387;-84
2022/03/02 12:43:03;;;;;;;20.47;10.60;;;;;;;1.91;85.09;100462.84;124274;1099;104306;-82
2022/03/02 12:45:46;;;;;;;23.87;10.17;;;;;;;1.87;84.99;100465.11;124260;1099;104239;-81